Time;durP1;ratioP1;P1;durP2;ratioP2;P2;SDS_P1;SDS_P2;PMS_P1;PMS_P2;Temp;Humidity;BMP_temperature;BMP_pressure;BME280_temperature;BME280_humidity;BME280_pressure;Samples;Min_cycle;Max_cycle;Signal;HPM_P1;HPM_P2
2022/04/15 00:00:39;;;;;;;;;;;17.70;99.90;;;;;;5032640;28;19905;-76
2022/04/15 00:03:06;;;;;;;;;;;17.80;99.90;;;;;;5030222;28;19908;-76
2022/04/15 00:05:36;;;;;;;;;;;17.80;99.90;;;;;;5029425;28;19995;-76
2022/04/15 00:08:06;;;;;;;;;;;17.80;99.90;;;;;;5030801;28;19983;-76
2022/04/15 00:10:32;;;;;;;;;;;17.80;99.90;;;;;;5030567;28;19909;-77
2022/04/15 00:12:58;;;;;;;;;;;17.80;99.90;;;;;;5033318;28;19912;-76
2022/04/15 00:15:24;;;;;;;;;;;17.80;99.90;;;;;;5029868;28;19909;-76
2022/04/15 00:17:50;;;;;;;;;;;17.80;99.90;;;;;;5029929;28;19909;-76
2022/04/15 00:20:16;;;;;;;;;;;17.80;99.90;;;;;;5029741;28;19959;-76
2022/04/15 00:22:41;;;;;;;;;;;17.80;99.90;;;;;;5029981;28;19917;-76
2022/04/15 00:25:07;;;;;;;;;;;17.70;99.90;;;;;;5015699;28;19905;-76
2022/04/15 00:27:34;;;;;;;;;;;17.70;99.90;;;;;;5031807;28;19960;-76
2022/04/15 00:29:59;;;;;;;;;;;17.80;99.90;;;;;;5030074;28;19909;-76
2022/04/15 00:32:26;;;;;;;;;;;17.70;99.90;;;;;;5012551;28;19932;-76
2022/04/15 00:34:53;;;;;;;;;;;17.70;99.90;;;;;;5029290;28;20378;-76
2022/04/15 00:37:18;;;;;;;;;;;17.70;99.90;;;;;;5014180;28;19944;-77
2022/04/15 00:39:45;;;;;;;;;;;17.70;99.90;;;;;;5031050;28;20448;-77
2022/04/15 00:42:10;;;;;;;;;;;17.70;99.90;;;;;;5029438;28;19909;-76
2022/04/15 00:44:37;;;;;;;;;;;17.70;99.90;;;;;;5029338;28;20341;-76
2022/04/15 00:47:07;;;;;;;;;;;17.70;99.90;;;;;;5030136;28;19917;-77
2022/04/15 00:49:33;;;;;;;;;;;17.70;99.90;;;;;;5030057;28;19913;-76
2022/04/15 00:51:58;;;;;;;;;;;17.70;99.90;;;;;;5032432;28;19911;-76
2022/04/15 00:54:28;;;;;;;;;;;17.70;99.90;;;;;;5029050;28;19913;-76
2022/04/15 00:56:57;;;;;;;;;;;17.60;99.90;;;;;;5029258;28;19909;-76
2022/04/15 00:59:23;;;;;;;;;;;17.70;99.90;;;;;;5029271;28;19909;-77
2022/04/15 01:01:50;;;;;;;;;;;17.60;99.90;;;;;;5029425;28;19936;-76
2022/04/15 01:04:17;;;;;;;;;;;17.60;99.90;;;;;;5031170;28;19916;-75
2022/04/15 01:06:44;;;;;;;;;;;17.60;99.90;;;;;;5030064;28;20445;-77
2022/04/15 01:09:11;;;;;;;;;;;17.60;99.90;;;;;;5029343;28;19905;-76
2022/04/15 01:11:37;;;;;;;;;;;17.60;99.90;;;;;;5028913;28;19909;-75
2022/04/15 01:14:04;;;;;;;;;;;17.60;99.90;;;;;;5028884;28;19975;-76
2022/04/15 01:16:30;;;;;;;;;;;17.60;99.90;;;;;;5029787;28;19916;-76
2022/04/15 01:18:55;;;;;;;;;;;17.60;99.90;;;;;;5031318;28;19905;-76
2022/04/15 01:21:24;;;;;;;;;;;17.60;99.90;;;;;;5028874;28;19912;-76
2022/04/15 01:23:50;;;;;;;;;;;17.60;99.90;;;;;;5028926;28;19909;-75
2022/04/15 01:26:18;;;;;;;;;;;17.60;99.90;;;;;;5028901;28;20289;-76
2022/04/15 01:28:44;;;;;;;;;;;17.60;99.90;;;;;;5028513;28;19924;-75
2022/04/15 01:31:10;;;;;;;;;;;17.50;99.90;;;;;;5031009;28;19909;-75
2022/04/15 01:33:35;;;;;;;;;;;17.60;99.90;;;;;;5029066;28;20358;-76
2022/04/15 01:36:01;;;;;;;;;;;17.60;99.90;;;;;;5028506;28;19909;-76
2022/04/15 01:38:28;;;;;;;;;;;17.50;99.90;;;;;;5028670;28;19917;-76
2022/04/15 01:40:53;;;;;;;;;;;17.50;99.90;;;;;;5028814;28;19910;-76
2022/04/15 01:43:19;;;;;;;;;;;17.60;99.90;;;;;;5030678;28;19920;-76
2022/04/15 01:45:45;;;;;;;;;;;17.60;99.90;;;;;;5029334;28;20390;-76
2022/04/15 01:48:10;;;;;;;;;;;17.50;99.90;;;;;;5028254;28;19960;-75
2022/04/15 01:50:36;;;;;;;;;;;17.50;99.90;;;;;;5028444;28;19963;-76
2022/04/15 01:53:01;;;;;;;;;;;17.50;99.90;;;;;;5028652;28;19909;-76
2022/04/15 01:55:27;;;;;;;;;;;17.40;99.90;;;;;;5012210;28;19923;-76
2022/04/15 01:57:53;;;;;;;;;;;17.50;99.90;;;;;;5030494;28;19927;-76
2022/04/15 02:00:18;;;;;;;;;;;17.40;99.90;;;;;;5027858;28;19963;-76
2022/04/15 02:02:44;;;;;;;;;;;17.40;99.90;;;;;;5028173;28;19955;-77
2022/04/15 02:05:10;;;;;;;;;;;17.30;99.90;;;;;;5028957;28;19955;-77
2022/04/15 02:07:35;;;;;;;;;;;17.20;99.90;;;;;;4995309;28;19988;-76
2022/04/15 02:10:01;;;;;;;;;;;17.20;99.90;;;;;;5031406;28;19924;-76
2022/04/15 02:12:27;;;;;;;;;;;17.00;99.90;;;;;;5029556;28;19916;-76
2022/04/15 02:14:52;;;;;;;;;;;16.90;99.90;;;;;;5034159;28;19935;-76
2022/04/15 02:17:18;;;;;;;;;;;16.80;99.90;;;;;;5034588;28;19913;-76
2022/04/15 02:19:44;;;;;;;;;;;16.80;99.90;;;;;;5034646;28;20291;-76
2022/04/15 02:22:09;;;;;;;;;;;16.80;99.90;;;;;;5037673;28;19991;-76
2022/04/15 02:24:35;;;;;;;;;;;16.80;99.90;;;;;;5035389;28;19913;-76
2022/04/15 02:27:01;;;;;;;;;;;16.90;99.90;;;;;;5035067;28;19917;-76
2022/04/15 02:29:26;;;;;;;;;;;17.00;99.90;;;;;;5033946;28;19915;-76
2022/04/15 02:31:52;;;;;;;;;;;17.00;99.90;;;;;;5034668;28;20004;-76
2022/04/15 02:34:17;;;;;;;;;;;17.00;99.90;;;;;;5037126;28;20362;-76
2022/04/15 02:36:43;;;;;;;;;;;16.90;99.90;;;;;;5035815;28;19905;-76
2022/04/15 02:39:11;;;;;;;;;;;16.90;99.90;;;;;;5034278;28;19917;-76
2022/04/15 02:41:40;;;;;;;;;;;16.70;99.90;;;;;;5034595;28;20362;-76
2022/04/15 02:44:07;;;;;;;;;;;16.60;99.90;;;;;;5034563;28;19919;-76
2022/04/15 02:46:32;;;;;;;;;;;16.60;99.90;;;;;;5034440;28;20337;-76
2022/04/15 02:48:58;;;;;;;;;;;16.50;99.90;;;;;;5037374;28;19904;-76
2022/04/15 02:51:24;;;;;;;;;;;16.60;99.90;;;;;;5034261;28;19979;-76
2022/04/15 02:53:49;;;;;;;;;;;16.60;99.90;;;;;;5034588;28;19999;-76
2022/04/15 02:56:15;;;;;;;;;;;16.70;99.90;;;;;;5034713;28;19913;-76
2022/04/15 02:58:40;;;;;;;;;;;16.70;99.90;;;;;;5034144;28;19916;-76
2022/04/15 03:01:06;;;;;;;;;;;16.70;99.90;;;;;;5037966;28;19905;-76
2022/04/15 03:03:33;;;;;;;;;;;16.60;99.90;;;;;;5034468;28;19913;-76
2022/04/15 03:05:59;;;;;;;;;;;16.60;99.90;;;;;;5033641;28;19909;-76
2022/04/15 03:08:25;;;;;;;;;;;16.40;99.90;;;;;;5034493;28;19931;-76
2022/04/15 03:10:51;;;;;;;;;;;16.40;99.90;;;;;;5034375;28;19910;-76
2022/04/15 03:13:17;;;;;;;;;;;16.40;99.90;;;;;;5036038;28;20336;-76
2022/04/15 03:15:42;;;;;;;;;;;16.40;99.90;;;;;;5035352;28;19905;-76
2022/04/15 03:18:08;;;;;;;;;;;16.30;99.90;;;;;;5034015;28;19995;-76
2022/04/15 03:20:33;;;;;;;;;;;16.30;99.90;;;;;;5034474;28;19909;-76
2022/04/15 03:22:59;;;;;;;;;;;16.30;99.90;;;;;;5034027;28;20285;-76
2022/04/15 03:25:24;;;;;;;;;;;16.30;99.90;;;;;;5032590;28;19905;-76
2022/04/15 03:27:50;;;;;;;;;;;16.20;99.90;;;;;;5032316;28;20302;-76
2022/04/15 03:30:16;;;;;;;;;;;16.20;99.90;;;;;;5030895;28;19948;-76
2022/04/15 03:32:46;;;;;;;;;;;16.20;99.90;;;;;;5030993;28;19909;-76
2022/04/15 03:35:11;;;;;;;;;;;16.30;99.90;;;;;;5031316;28;19909;-76
2022/04/15 03:37:37;;;;;;;;;;;16.30;99.90;;;;;;5031058;28;19962;-76
2022/04/15 03:40:03;;;;;;;;;;;16.40;99.90;;;;;;5034174;28;19912;-76
2022/04/15 03:42:28;;;;;;;;;;;16.40;99.90;;;;;;5030026;28;19991;-76
2022/04/15 03:44:54;;;;;;;;;;;16.40;99.90;;;;;;5030640;28;19905;-76
2022/04/15 03:47:19;;;;;;;;;;;16.50;99.90;;;;;;5030989;28;20378;-76
2022/04/15 03:49:47;;;;;;;;;;;16.50;99.90;;;;;;5030666;28;19909;-76
2022/04/15 03:52:12;;;;;;;;;;;16.50;99.90;;;;;;5033099;28;19913;-76
2022/04/15 03:54:38;;;;;;;;;;;16.50;99.90;;;;;;5031378;28;19916;-76
2022/04/15 03:57:04;;;;;;;;;;;16.40;99.90;;;;;;5029985;28;19905;-76
2022/04/15 03:59:29;;;;;;;;;;;16.40;99.90;;;;;;5013369;28;20259;-76
2022/04/15 04:01:55;;;;;;;;;;;16.40;99.90;;;;;;5030614;28;20004;-76
2022/04/15 04:04:20;;;;;;;;;;;16.40;99.90;;;;;;5032542;28;19972;-75
2022/04/15 04:06:46;;;;;;;;;;;16.40;99.90;;;;;;5031453;28;19916;-76
2022/04/15 04:09:11;;;;;;;;;;;16.40;99.90;;;;;;5030240;28;19905;-76
2022/04/15 04:11:37;;;;;;;;;;;16.40;99.90;;;;;;5029586;28;20282;-76
2022/04/15 04:14:03;;;;;;;;;;;16.30;99.90;;;;;;5030336;28;19908;-76
2022/04/15 04:16:28;;;;;;;;;;;16.30;99.90;;;;;;5031877;28;19953;-76
2022/04/15 04:18:54;;;;;;;;;;;16.20;99.90;;;;;;5031969;28;19905;-76
2022/04/15 04:21:20;;;;;;;;;;;16.20;99.90;;;;;;5030163;28;19975;-76
2022/04/15 04:23:46;;;;;;;;;;;16.20;99.90;;;;;;5029756;28;19913;-77
2022/04/15 04:26:11;;;;;;;;;;;16.20;99.90;;;;;;5029295;28;20035;-76
2022/04/15 04:28:37;;;;;;;;;;;16.20;99.90;;;;;;5030257;28;19996;-76
2022/04/15 04:31:02;;;;;;;;;;;16.20;99.90;;;;;;5033128;28;20358;-76
2022/04/15 04:33:28;;;;;;;;;;;16.20;99.90;;;;;;5029673;28;20067;-76
2022/04/15 04:35:53;;;;;;;;;;;16.30;99.90;;;;;;5029304;28;19909;-76
2022/04/15 04:38:19;;;;;;;;;;;16.30;99.90;;;;;;5029750;28;20402;-76
2022/04/15 04:40:45;;;;;;;;;;;16.20;99.90;;;;;;5029882;28;20437;-76
2022/04/15 04:43:11;;;;;;;;;;;16.20;99.90;;;;;;5032401;28;20373;-76
2022/04/15 04:45:37;;;;;;;;;;;16.20;99.90;;;;;;5029961;28;19912;-75
2022/04/15 04:48:03;;;;;;;;;;;16.20;99.90;;;;;;5029681;28;19917;-76
2022/04/15 04:50:30;;;;;;;;;;;16.10;99.90;;;;;;5029406;28;19915;-76
2022/04/15 04:52:56;;;;;;;;;;;16.10;99.90;;;;;;5029605;28;20402;-76
2022/04/15 04:55:22;;;;;;;;;;;16.00;99.90;;;;;;5031079;28;19905;-76
2022/04/15 04:57:48;;;;;;;;;;;16.00;99.90;;;;;;5030774;28;20250;-76
2022/04/15 05:00:14;;;;;;;;;;;16.00;99.90;;;;;;5011616;28;20072;-76
2022/04/15 05:02:40;;;;;;;;;;;16.00;99.90;;;;;;5007039;28;19909;-76
2022/04/15 05:05:07;;;;;;;;;;;16.00;99.90;;;;;;5029616;28;19919;-76
2022/04/15 05:07:32;;;;;;;;;;;16.00;99.90;;;;;;5030066;28;19922;-75
2022/04/15 05:09:58;;;;;;;;;;;16.00;99.90;;;;;;5031713;28;19912;-76
2022/04/15 05:12:23;;;;;;;;;;;16.00;99.90;;;;;;5028779;28;19909;-75
2022/04/15 05:14:49;;;;;;;;;;;15.90;99.90;;;;;;5029019;28;19909;-76
2022/04/15 05:17:15;;;;;;;;;;;15.90;99.90;;;;;;5029163;28;19913;-76
2022/04/15 05:19:40;;;;;;;;;;;16.00;99.90;;;;;;5029033;28;20043;-74
2022/04/15 05:22:06;;;;;;;;;;;15.90;99.90;;;;;;5030283;28;19920;-75
2022/04/15 05:24:32;;;;;;;;;;;15.90;99.90;;;;;;5026503;28;19909;-76
2022/04/15 05:26:58;;;;;;;;;;;15.90;99.90;;;;;;5023583;28;19924;-75
2022/04/15 05:29:23;;;;;;;;;;;15.90;99.90;;;;;;5023322;28;19963;-76
2022/04/15 05:31:49;;;;;;;;;;;15.90;99.90;;;;;;5018203;28;19917;-75
2022/04/15 05:34:15;;;;;;;;;;;15.90;99.90;;;;;;5028664;28;20172;-76
2022/04/15 05:36:40;;;;;;;;;;;16.00;99.90;;;;;;5029879;28;19966;-75
2022/04/15 05:39:06;;;;;;;;;;;16.00;99.90;;;;;;5028075;28;19924;-75
2022/04/15 05:41:31;;;;;;;;;;;16.00;99.90;;;;;;5031779;28;20296;-75
2022/04/15 05:43:58;;;;;;;;;;;16.00;99.90;;;;;;5028567;28;19909;-75
2022/04/15 05:46:27;;;;;;;;;;;16.00;99.90;;;;;;5030979;28;19995;-76
2022/04/15 05:48:52;;;;;;;;;;;16.00;99.90;;;;;;5029615;28;19917;-76
2022/04/15 05:51:19;;;;;;;;;;;16.10;99.90;;;;;;5028419;28;19916;-75
2022/04/15 05:53:44;;;;;;;;;;;16.10;99.90;;;;;;5028025;28;19964;-76
2022/04/15 05:56:10;;;;;;;;;;;16.10;99.90;;;;;;5028345;28;19909;-75
2022/04/15 05:58:36;;;;;;;;;;;16.10;99.90;;;;;;5028903;28;20282;-75
2022/04/15 06:01:02;;;;;;;;;;;16.10;99.90;;;;;;5031367;28;19955;-74
2022/04/15 06:03:32;;;;;;;;;;;16.20;99.90;;;;;;5028152;28;19915;-74
2022/04/15 06:06:00;;;;;;;;;;;16.30;99.90;;;;;;5027623;28;19913;-75
2022/04/15 06:08:26;;;;;;;;;;;16.30;99.90;;;;;;5027539;28;19921;-74
2022/04/15 06:10:52;;;;;;;;;;;16.40;99.90;;;;;;5018054;28;19974;-75
2022/04/15 06:13:22;;;;;;;;;;;16.50;99.90;;;;;;5030200;28;19912;-75
2022/04/15 06:15:52;;;;;;;;;;;16.50;99.90;;;;;;5029204;28;20389;-75
2022/04/15 06:18:21;;;;;;;;;;;16.60;99.90;;;;;;5028185;28;20448;-75
2022/04/15 06:20:47;;;;;;;;;;;16.70;99.90;;;;;;5027532;28;19934;-75
2022/04/15 06:23:14;;;;;;;;;;;16.70;99.90;;;;;;5023254;28;19910;-75
2022/04/15 06:25:40;;;;;;;;;;;16.80;99.90;;;;;;5027785;28;19944;-75
2022/04/15 06:28:06;;;;;;;;;;;16.90;99.90;;;;;;5031554;28;20002;-75
2022/04/15 06:30:31;;;;;;;;;;;16.90;99.90;;;;;;5027780;28;20360;-76
2022/04/15 06:32:57;;;;;;;;;;;16.90;99.90;;;;;;5027455;28;19909;-72
2022/04/15 06:35:22;;;;;;;;;;;17.00;99.90;;;;;;5027694;28;19909;-74
2022/04/15 06:37:48;;;;;;;;;;;17.10;99.90;;;;;;5016658;28;20006;-75
2022/04/15 06:40:14;;;;;;;;;;;17.10;99.90;;;;;;5030336;28;20301;-75
2022/04/15 06:42:39;;;;;;;;;;;17.30;99.90;;;;;;5028122;28;19951;-75
2022/04/15 06:45:06;;;;;;;;;;;17.30;99.90;;;;;;5027701;28;19913;-75
2022/04/15 06:47:31;;;;;;;;;;;17.40;99.90;;;;;;5027892;28;19979;-75
2022/04/15 06:49:57;;;;;;;;;;;17.50;99.90;;;;;;5027770;28;19960;-75
2022/04/15 06:52:23;;;;;;;;;;;17.50;99.90;;;;;;5030259;28;19936;-73
2022/04/15 06:54:49;;;;;;;;;;;17.50;99.90;;;;;;5028631;28;19912;-74
2022/04/15 06:57:15;;;;;;;;;;;17.40;99.90;;;;;;5027454;28;19909;-75
2022/04/15 06:59:40;;;;;;;;;;;17.50;99.90;;;;;;5030126;28;19912;-74
2022/04/15 07:02:06;;;;;;;;;;;17.60;99.90;;;;;;5025816;28;19935;-75
2022/04/15 07:04:32;;;;;;;;;;;17.70;99.90;;;;;;5027381;28;19972;-75
2022/04/15 07:06:58;;;;;;;;;;;17.80;99.90;;;;;;5030058;28;19909;-74
2022/04/15 07:09:24;;;;;;;;;;;17.80;99.90;;;;;;5026444;28;19909;-74
2022/04/15 07:11:49;;;;;;;;;;;17.90;99.90;;;;;;5027118;28;20345;-74
2022/04/15 07:14:15;;;;;;;;;;;18.00;99.90;;;;;;5026475;28;20333;-75
2022/04/15 07:16:41;;;;;;;;;;;18.10;99.90;;;;;;5027505;28;19913;-75
2022/04/15 07:19:07;;;;;;;;;;;18.30;99.90;;;;;;5029894;28;19972;-74
2022/04/15 07:21:39;;;;;;;;;;;18.30;99.90;;;;;;5026690;28;19936;-74
2022/04/15 07:24:05;;;;;;;;;;;18.50;99.90;;;;;;5026243;28;19909;-74
2022/04/15 07:26:31;;;;;;;;;;;18.50;99.90;;;;;;5026134;28;19913;-74
2022/04/15 07:28:57;;;;;;;;;;;18.60;99.90;;;;;;5027456;28;19918;-74
2022/04/15 07:31:23;;;;;;;;;;;18.70;99.90;;;;;;5028682;28;19912;-74
2022/04/15 07:33:49;;;;;;;;;;;18.80;99.90;;;;;;5027334;28;19931;-74
2022/04/15 07:38:58;;;;;;;;;;;19.10;99.90;;;;;;5021529;28;19936;-75
2022/04/15 07:41:24;;;;;;;;;;;19.10;99.90;;;;;;5026466;28;19930;-74
2022/04/15 07:43:49;;;;;;;;;;;19.20;99.90;;;;;;5030599;28;19909;-75
2022/04/15 07:46:16;;;;;;;;;;;19.30;99.90;;;;;;5015741;28;20487;-74
2022/04/15 07:48:41;;;;;;;;;;;19.40;99.90;;;;;;5032619;28;19920;-74
2022/04/15 07:51:07;;;;;;;;;;;19.60;99.90;;;;;;5030477;28;19909;-75
2022/04/15 07:53:33;;;;;;;;;;;19.70;99.90;;;;;;5030625;28;19967;-75
2022/04/15 07:55:58;;;;;;;;;;;19.70;99.90;;;;;;5030455;28;19917;-75
2022/04/15 07:58:24;;;;;;;;;;;19.80;99.90;;;;;;5033133;28;19987;-75
2022/04/15 08:00:49;;;;;;;;;;;19.90;99.90;;;;;;5032197;28;19912;-74
2022/04/15 08:03:17;;;;;;;;;;;19.80;99.90;;;;;;5029738;28;20290;-74
2022/04/15 08:05:43;;;;;;;;;;;19.80;99.90;;;;;;5030394;28;20354;-74
2022/04/15 08:08:08;;;;;;;;;;;19.80;99.90;;;;;;5030441;28;20307;-75
2022/04/15 08:10:34;;;;;;;;;;;19.90;99.90;;;;;;5030383;28;20047;-75
2022/04/15 08:13:01;;;;;;;;;;;19.90;99.90;;;;;;5033039;28;20351;-74
2022/04/15 08:15:27;;;;;;;;;;;20.00;99.90;;;;;;5030423;28;19916;-74
2022/04/15 08:17:52;;;;;;;;;;;20.10;99.90;;;;;;5029435;28;19909;-74
2022/04/15 08:20:18;;;;;;;;;;;20.20;99.90;;;;;;5030101;28;20321;-75
2022/04/15 08:22:44;;;;;;;;;;;20.30;99.30;;;;;;5012747;28;19917;-74
2022/04/15 08:25:10;;;;;;;;;;;20.50;99.60;;;;;;5033793;28;19992;-74
2022/04/15 08:27:35;;;;;;;;;;;20.60;99.90;;;;;;5031941;28;19920;-74
2022/04/15 08:30:01;;;;;;;;;;;20.80;99.40;;;;;;5029710;28;19909;-74
2022/04/15 08:32:33;;;;;;;;;;;20.80;98.80;;;;;;5029776;28;19909;-74
2022/04/15 08:35:06;;;;;;;;;;;20.80;98.20;;;;;;5029948;28;19971;-75
2022/04/15 08:37:33;;;;;;;;;;;20.90;97.90;;;;;;5030663;28;19910;-74
2022/04/15 08:39:59;;;;;;;;;;;20.90;97.80;;;;;;5032339;28;19955;-74
2022/04/15 08:42:24;;;;;;;;;;;20.90;98.10;;;;;;5012703;28;19952;-75
2022/04/15 08:44:51;;;;;;;;;;;20.80;98.00;;;;;;5029665;28;20397;-74
2022/04/15 08:47:17;;;;;;;;;;;20.70;98.10;;;;;;5029270;28;20008;-75
2022/04/15 08:49:42;;;;;;;;;;;20.70;98.20;;;;;;5029613;28;19971;-74
2022/04/15 08:52:09;;;;;;;;;;;20.60;98.00;;;;;;5033187;28;19944;-75
2022/04/15 08:54:35;;;;;;;;;;;20.60;98.40;;;;;;5031243;28;19982;-75
2022/04/15 08:57:01;;;;;;;;;;;20.50;98.60;;;;;;5029531;28;19909;-74
2022/04/15 08:59:26;;;;;;;;;;;20.50;98.60;;;;;;5029127;28;19913;-75
2022/04/15 09:01:52;;;;;;;;;;;20.50;99.00;;;;;;5028936;28;19972;-74
2022/04/15 09:04:18;;;;;;;;;;;20.50;99.40;;;;;;5031573;28;19905;-75
2022/04/15 09:06:44;;;;;;;;;;;20.50;99.20;;;;;;5030782;28;19905;-75
2022/04/15 09:09:14;;;;;;;;;;;20.60;99.60;;;;;;5029029;28;19915;-75
2022/04/15 09:11:40;;;;;;;;;;;20.70;99.10;;;;;;5028988;28;19915;-75
2022/04/15 09:14:13;;;;;;;;;;;20.80;99.10;;;;;;5029367;28;19913;-74
2022/04/15 09:16:39;;;;;;;;;;;20.90;99.10;;;;;;5013706;28;19909;-75
2022/04/15 09:19:06;;;;;;;;;;;21.10;98.80;;;;;;5032668;28;19909;-75
2022/04/15 09:21:32;;;;;;;;;;;21.30;98.60;;;;;;5028583;28;20356;-76
2022/04/15 09:23:58;;;;;;;;;;;21.50;97.80;;;;;;5028032;28;19909;-75
2022/04/15 09:26:24;;;;;;;;;;;21.70;97.20;;;;;;5029473;28;19913;-75
2022/04/15 09:28:51;;;;;;;;;;;21.80;96.80;;;;;;5028325;28;19968;-75
2022/04/15 09:31:17;;;;;;;;;;;21.90;96.90;;;;;;5031006;28;20229;-75
2022/04/15 09:33:49;;;;;;;;;;;22.00;96.70;;;;;;5030098;28;19909;-75
2022/04/15 09:36:31;;;;;;;;;;;22.30;96.50;;;;;;5028507;28;19909;-76
2022/04/15 09:39:01;;;;;;;;;;;22.50;97.00;;;;;;5028282;28;19928;-75
2022/04/15 09:41:27;;;;;;;;;;;22.60;96.60;;;;;;5028446;28;20317;-76
2022/04/15 09:43:53;;;;;;;;;;;22.60;96.30;;;;;;5028170;28;19910;-75
2022/04/15 09:46:19;;;;;;;;;;;22.70;95.80;;;;;;5030931;28;20107;-75
2022/04/15 09:48:57;;;;;;;;;;;22.60;95.60;;;;;;5029385;28;19919;-75
2022/04/15 09:51:23;;;;;;;;;;;22.80;95.60;;;;;;5028271;28;19980;-75
2022/04/15 09:53:51;;;;;;;;;;;22.90;96.30;;;;;;5028570;28;20007;-75
2022/04/15 09:56:18;;;;;;;;;;;22.90;95.40;;;;;;5028246;28;20000;-75
2022/04/15 09:58:46;;;;;;;;;;;22.90;95.30;;;;;;5028246;28;19912;-75
2022/04/15 10:01:12;;;;;;;;;;;22.90;94.80;;;;;;5031460;28;19913;-76
2022/04/15 10:03:40;;;;;;;;;;;22.90;95.20;;;;;;5028947;28;19905;-75
2022/04/15 10:06:07;;;;;;;;;;;22.80;94.80;;;;;;5028711;28;20366;-75
2022/04/15 10:08:33;;;;;;;;;;;22.90;95.20;;;;;;5027918;28;19944;-76
2022/04/15 10:10:58;;;;;;;;;;;23.00;95.10;;;;;;5028102;28;20282;-75
2022/04/15 10:13:28;;;;;;;;;;;23.30;95.60;;;;;;5030213;28;19905;-75
2022/04/15 10:15:56;;;;;;;;;;;23.40;94.80;;;;;;5030088;28;19958;-75
2022/04/15 10:18:22;;;;;;;;;;;23.60;95.30;;;;;;5028061;28;19915;-75
2022/04/15 10:20:48;;;;;;;;;;;23.70;94.70;;;;;;5028193;28;19988;-75
2022/04/15 10:23:15;;;;;;;;;;;23.90;94.00;;;;;;5027510;28;19913;-75
2022/04/15 10:25:46;;;;;;;;;;;24.10;93.10;;;;;;5028675;28;19912;-75
2022/04/15 10:28:19;;;;;;;;;;;24.10;92.80;;;;;;5030456;28;20396;-75
2022/04/15 10:30:52;;;;;;;;;;;24.10;92.60;;;;;;5029826;28;19959;-75
2022/04/15 10:33:36;;;;;;;;;;;24.30;91.90;;;;;;5028074;28;19912;-76
2022/04/15 10:36:11;;;;;;;;;;;24.40;92.00;;;;;;5032254;28;19916;-75
2022/04/15 10:38:37;;;;;;;;;;;24.70;91.70;;;;;;5031803;28;19971;-75
2022/04/15 10:41:16;;;;;;;;;;;24.70;90.80;;;;;;5031995;28;19913;-75
2022/04/15 10:43:58;;;;;;;;;;;24.70;90.10;;;;;;5015915;28;19909;-75
2022/04/15 10:46:30;;;;;;;;;;;24.90;90.20;;;;;;5034198;28;20354;-75
2022/04/15 10:49:00;;;;;;;;;;;24.80;90.10;;;;;;5033861;28;19920;-75
2022/04/15 10:51:29;;;;;;;;;;;24.90;90.30;;;;;;5031998;28;19909;-75
2022/04/15 10:53:55;;;;;;;;;;;25.00;90.10;;;;;;5031635;28;19932;-75
2022/04/15 10:56:22;;;;;;;;;;;25.30;89.10;;;;;;5031343;28;20370;-75
2022/04/15 11:02:04;;;;;;;;;;;25.10;86.40;;;;;;4977798;28;19964;-76
2022/04/15 11:04:35;;;;;;;;;;;25.20;87.00;;;;;;4992252;28;19913;-76
2022/04/15 11:07:13;;;;;;;;;;;25.30;86.30;;;;;;4993548;28;19929;-76
2022/04/15 11:09:39;;;;;;;;;;;25.40;85.20;;;;;;4992468;28;19982;-78
2022/04/15 11:12:06;;;;;;;;;;;25.50;85.00;;;;;;4992139;28;19921;-75
2022/04/15 11:14:34;;;;;;;;;;;25.40;82.60;;;;;;4993276;28;19910;-84
2022/04/15 11:17:00;;;;;;;;;;;25.30;84.10;;;;;;4992959;28;19910;-82
2022/04/15 11:19:26;;;;;;;;;;;25.40;84.60;;;;;;4993238;28;19910;-82
2022/04/15 11:21:53;;;;;;;;;;;25.40;84.20;;;;;;4993430;28;20000;-81
2022/04/15 11:24:22;;;;;;;;;;;25.50;83.40;;;;;;4992755;28;20361;-83
2022/04/15 11:26:47;;;;;;;;;;;25.50;84.40;;;;;;4992245;28;19980;-82
2022/04/15 11:29:14;;;;;;;;;;;25.30;85.70;;;;;;4992378;28;20379;-82
2022/04/15 11:31:46;;;;;;;;;;;25.30;84.50;;;;;;4992515;28;19925;-83
2022/04/15 11:34:20;;;;;;;;;;;25.50;84.00;;;;;;4993399;28;19977;-82
2022/04/15 11:36:47;;;;;;;;;;;25.50;83.30;;;;;;4993109;28;19906;-84
2022/04/15 11:39:14;;;;;;;;;;;25.50;85.00;;;;;;5025182;28;20450;-83
2022/04/15 11:41:46;;;;;;;;;;;25.60;82.90;;;;;;5030652;28;19975;-83
2022/04/15 11:44:12;;;;;;;;;;;25.70;82.20;;;;;;5031271;28;19909;-81
2022/04/15 11:46:39;;;;;;;;;;;25.70;83.80;;;;;;5028309;28;20328;-82
2022/04/15 11:49:14;;;;;;;;;;;25.90;83.30;;;;;;5025929;28;19924;-81
2022/04/15 11:51:42;;;;;;;;;;;26.10;81.40;;;;;;5024077;28;19909;-81
2022/04/15 11:54:08;;;;;;;;;;;26.20;80.50;;;;;;5024884;28;19913;-80
2022/04/15 11:56:34;;;;;;;;;;;26.10;82.50;;;;;;5024379;28;19972;-82
2022/04/15 11:59:00;;;;;;;;;;;26.10;82.60;;;;;;5023619;28;19944;-81
2022/04/15 12:01:27;;;;;;;;;;;26.10;84.80;;;;;;5024236;28;19945;-81
2022/04/15 12:03:52;;;;;;;;;;;26.30;82.00;;;;;;5024092;28;19905;-81
2022/04/15 12:06:18;;;;;;;;;;;26.40;81.30;;;;;;5024673;28;20396;-81
2022/04/15 12:08:44;;;;;;;;;;;26.50;82.30;;;;;;5023899;28;19939;-81
2022/04/15 12:11:11;;;;;;;;;;;26.50;80.60;;;;;;5023229;28;19933;-80
2022/04/15 12:13:36;;;;;;;;;;;26.60;81.20;;;;;;5024705;28;19933;-80
2022/04/15 12:16:03;;;;;;;;;;;26.60;81.60;;;;;;5023791;28;19906;-80
2022/04/15 12:18:29;;;;;;;;;;;26.50;83.30;;;;;;5023753;28;20000;-81
2022/04/15 12:20:55;;;;;;;;;;;26.60;81.20;;;;;;5023493;28;20068;-81
2022/04/15 12:23:22;;;;;;;;;;;26.50;80.50;;;;;;5022908;28;20553;-78
2022/04/15 12:26:08;;;;;;;;;;;26.60;81.50;;;;;;5029835;28;19910;-82
2022/04/15 12:31:29;;;;;;;;;;;26.90;75.90;;;;;;5031181;28;20338;-79
2022/04/15 12:33:55;;;;;;;;;;;26.90;76.50;;;;;;5031768;28;20289;-79
2022/04/15 12:36:21;;;;;;;;;;;26.80;75.70;;;;;;5030150;28;19909;-79
2022/04/15 12:38:59;;;;;;;;;;;27.00;76.30;;;;;;5028917;28;19917;-79
2022/04/15 12:41:35;;;;;;;;;;;27.10;75.70;;;;;;5029768;28;19909;-79
2022/04/15 12:44:20;;;;;;;;;;;26.90;77.00;;;;;;5012453;28;19909;-79
2022/04/15 12:46:47;;;;;;;;;;;26.90;76.50;;;;;;5014506;28;19924;-79
2022/04/15 12:49:21;;;;;;;;;;;26.80;76.50;;;;;;5032948;28;20404;-79
2022/04/15 12:51:48;;;;;;;;;;;26.80;77.70;;;;;;5030195;28;19966;-78
2022/04/15 12:54:13;;;;;;;;;;;26.80;76.90;;;;;;5028922;28;19913;-79
2022/04/15 12:56:52;;;;;;;;;;;26.60;78.10;;;;;;5030630;28;19909;-76
2022/04/15 12:59:17;;;;;;;;;;;26.50;77.40;;;;;;5029483;28;20032;-76
2022/04/15 13:01:43;;;;;;;;;;;26.50;76.60;;;;;;5029401;28;19909;-76
2022/04/15 13:04:13;;;;;;;;;;;26.70;75.10;;;;;;5033111;28;20332;-78
2022/04/15 13:06:39;;;;;;;;;;;26.80;76.30;;;;;;5029617;28;19916;-78
2022/04/15 13:09:04;;;;;;;;;;;26.80;77.20;;;;;;5023485;28;19921;-78
2022/04/15 13:11:30;;;;;;;;;;;26.70;77.10;;;;;;5020955;28;19948;-77
2022/04/15 13:13:55;;;;;;;;;;;26.70;74.50;;;;;;5026058;28;20397;-78
2022/04/15 13:16:21;;;;;;;;;;;26.80;74.30;;;;;;5028890;28;20374;-78
2022/04/15 13:18:47;;;;;;;;;;;26.90;75.40;;;;;;5009536;28;19909;-79
2022/04/15 13:21:13;;;;;;;;;;;27.00;75.60;;;;;;5024068;28;20447;-78
2022/04/15 13:23:38;;;;;;;;;;;27.30;73.70;;;;;;5025250;28;20234;-78
2022/04/15 13:26:04;;;;;;;;;;;27.40;71.00;;;;;;5026364;28;19970;-76
2022/04/15 13:28:30;;;;;;;;;;;27.30;73.00;;;;;;5027450;28;19916;-77
2022/04/15 13:30:55;;;;;;;;;;;27.40;72.70;;;;;;5027596;28;19913;-76
2022/04/15 13:33:21;;;;;;;;;;;27.40;73.10;;;;;;5025779;28;20321;-76
2022/04/15 13:35:46;;;;;;;;;;;27.30;73.30;;;;;;5026095;28;20374;-76
2022/04/15 13:38:12;;;;;;;;;;;27.30;73.10;;;;;;5006423;28;19921;-75
2022/04/15 13:40:41;;;;;;;;;;;27.40;72.50;;;;;;5006157;28;19925;-76
2022/04/15 13:43:07;;;;;;;;;;;27.40;70.80;;;;;;5004991;28;20350;-76
2022/04/15 13:45:33;;;;;;;;;;;27.40;71.50;;;;;;5005809;28;20007;-76
2022/04/15 13:47:58;;;;;;;;;;;27.40;72.50;;;;;;5005534;28;19921;-76
2022/04/15 13:50:24;;;;;;;;;;;27.40;73.00;;;;;;5005425;28;19944;-77
2022/04/15 13:58:19;;;;;;;;;;;27.70;70.80;;;;;;5005489;28;19964;-77
2022/04/15 14:00:44;;;;;;;;;;;27.80;72.50;;;;;;5007598;28;19913;-77
2022/04/15 14:03:10;;;;;;;;;;;27.80;72.60;;;;;;5006017;28;19964;-77
2022/04/15 14:05:36;;;;;;;;;;;27.90;70.30;;;;;;5004919;28;19917;-76
2022/04/15 14:08:03;;;;;;;;;;;27.90;71.10;;;;;;5005942;28;19925;-76
2022/04/15 14:10:29;;;;;;;;;;;27.80;70.30;;;;;;5007382;28;20008;-77
2022/04/15 14:12:56;;;;;;;;;;;27.90;67.60;;;;;;5006997;28;20389;-76
2022/04/15 14:15:24;;;;;;;;;;;27.80;69.60;;;;;;5004926;28;19920;-76
2022/04/15 14:17:50;;;;;;;;;;;27.90;68.40;;;;;;5005020;28;19914;-76
2022/04/15 14:20:15;;;;;;;;;;;27.90;68.50;;;;;;5004576;28;19964;-76
2022/04/15 14:22:41;;;;;;;;;;;28.10;68.70;;;;;;5003289;28;19913;-76
2022/04/15 14:25:07;;;;;;;;;;;28.50;66.60;;;;;;5019613;28;19909;-76
2022/04/15 14:27:32;;;;;;;;;;;28.50;65.60;;;;;;5001781;28;20297;-76